Time;durP1;ratioP1;P1;durP2;ratioP2;P2;SDS_P1;SDS_P2;PMS_P1;PMS_P2;Temp;Humidity;BMP_temperature;BMP_pressure;BME280_temperature;BME280_humidity;BME280_pressure;Samples;Min_cycle;Max_cycle;Signal;HPM_P1;HPM_P2
2022/01/25 00:24:53;;;;;;;66.60;41.22;;;;;;;8.76;55.88;103582.88;5031971;28;20408;-76
2022/01/25 00:29:57;;;;;;;64.38;40.70;;;;;;;8.82;54.99;103580.44;5032365;28;20048;-75
2022/01/25 00:32:22;;;;;;;65.63;39.67;;;;;;;9.15;54.39;103578.19;5037747;28;20049;-75
2022/01/25 00:34:48;;;;;;;60.63;39.45;;;;;;;8.76;55.59;103577.50;5031361;28;20049;-75
2022/01/25 00:37:13;;;;;;;63.72;41.22;;;;;;;9.05;55.01;103583.59;5031393;28;20069;-75
2022/01/25 00:39:40;;;;;;;61.90;39.28;;;;;;;9.31;54.08;103586.44;5031434;28;20041;-75
2022/01/25 00:42:07;;;;;;;59.15;37.53;;;;;;;9.19;54.24;103585.78;5031612;28;20037;-75
2022/01/25 00:44:37;;;;;;;64.88;40.35;;;;;;;9.49;53.89;103576.59;5032282;28;20465;-75
2022/01/25 00:47:05;;;;;;;67.78;41.42;;;;;;;9.62;53.39;103574.38;5031732;28;20089;-76
2022/01/25 00:49:33;;;;;;;68.20;39.53;;;;;;;9.59;53.76;103561.25;5014003;28;20037;-76
2022/01/25 00:52:06;;;;;;;63.63;39.03;;;;;;;9.64;53.42;103570.53;5031579;28;20033;-75
2022/01/25 00:54:34;;;;;;;56.00;37.50;;;;;;;9.58;53.03;103568.47;5032764;28;20049;-75
2022/01/25 00:57:00;;;;;;;53.83;34.65;;;;;;;9.65;53.13;103566.03;5035165;28;20033;-75
2022/01/25 00:59:28;;;;;;;59.22;38.13;;;;;;;9.47;53.26;103565.97;5035585;28;20048;-76
2022/01/25 01:01:58;;;;;;;52.25;34.85;;;;;;;9.61;53.07;103557.41;5034708;28;20044;-75
2022/01/25 01:04:24;;;;;;;57.75;36.97;;;;;;;9.43;53.69;103556.56;5035076;28;20052;-74
2022/01/25 01:06:50;;;;;;;61.67;37.83;;;;;;;9.15;54.19;103557.56;5034350;28;20025;-76
2022/01/25 01:09:18;;;;;;;66.50;40.25;;;;;;;9.17;54.92;103562.78;5034522;28;20046;-75
2022/01/25 01:12:03;;;;;;;64.50;41.13;;;;;;;9.18;54.42;103559.13;5035039;28;20029;-76
2022/01/25 01:30:47;;;;;;;62.00;38.72;;;;;;;9.00;54.93;103561.75;5033914;28;20048;-76
2022/01/25 01:43:37;;;;;;;59.15;37.13;;;;;;;8.55;55.40;103542.88;5034251;28;20037;-75
2022/01/25 01:48:51;;;;;;;55.28;37.90;;;;;;;9.30;53.61;103549.84;5034112;28;20037;-75
2022/01/25 01:51:30;;;;;;;59.47;36.95;;;;;;;9.46;53.14;103555.41;5033148;28;20037;-76
2022/01/25 01:54:15;;;;;;;61.25;37.63;;;;;;;9.54;52.56;103563.53;5033244;28;20025;-75
2022/01/25 01:56:42;;;;;;;63.72;38.28;;;;;;;9.26;53.57;103557.38;5033632;28;20034;-76
2022/01/25 01:59:11;;;;;;;68.65;40.67;;;;;;;9.03;54.40;103552.56;5017996;28;20038;-75
2022/01/25 02:01:39;;;;;;;61.63;38.08;;;;;;;9.30;53.73;103564.13;5012917;28;20053;-74
2022/01/25 02:04:07;;;;;;;62.03;37.83;;;;;;;9.48;53.09;103554.25;4995219;28;20037;-76
2022/01/25 02:06:33;;;;;;;71.90;41.55;;;;;;;9.67;52.71;103551.44;5012083;28;20030;-76
2022/01/25 02:08:58;;;;;;;71.60;41.33;;;;;;;9.40;53.34;103551.50;5013114;28;20034;-75
2022/01/25 02:11:24;;;;;;;60.22;37.78;;;;;;;9.05;55.42;103553.25;5013293;28;20069;-75
2022/01/25 02:13:50;;;;;;;70.50;41.42;;;;;;;9.04;55.37;103547.03;5012901;28;20056;-75
2022/01/25 02:16:44;;;;;;;72.18;41.67;;;;;;;9.14;55.25;103549.69;5013146;28;20029;-75
2022/01/25 02:24:41;;;;;;;71.28;41.42;;;;;;;9.23;54.33;103536.22;5024415;28;20059;-75
2022/01/25 02:27:06;;;;;;;68.97;40.78;;;;;;;9.47;53.81;103531.09;5035196;28;20030;-75
2022/01/25 02:29:32;;;;;;;66.50;40.65;;;;;;;9.50;53.81;103528.13;5033146;28;20071;-75
2022/01/25 02:31:58;;;;;;;63.10;42.03;;;;;;;9.56;53.27;103527.50;5032718;28;20041;-77
2022/01/25 02:34:25;;;;;;;66.88;39.88;;;;;;;9.60;53.08;103525.34;5032567;28;20045;-75
2022/01/25 02:36:57;;;;;;;63.05;39.20;;;;;;;9.52;53.18;103520.75;5033120;28;20492;-75
2022/01/25 02:39:22;;;;;;;60.53;37.28;;;;;;;9.28;53.38;103528.53;5033120;28;20034;-76
2022/01/25 02:41:47;;;;;;;62.05;37.55;;;;;;;9.34;53.52;103527.94;5033882;28;20457;-77
2022/01/25 02:44:21;;;;;;;56.45;35.63;;;;;;;9.09;54.48;103534.03;5033787;28;20501;-76
2022/01/25 02:49:13;;;;;;;61.10;38.25;;;;;;;9.34;52.87;103546.72;5013851;28;20045;-76
2022/01/25 02:51:42;;;;;;;60.08;39.55;;;;;;;9.45;52.93;103548.38;5013622;28;20030;-75
2022/01/25 02:54:09;;;;;;;60.45;36.63;;;;;;;9.58;52.82;103540.78;5013306;28;20042;-76
2022/01/25 02:56:36;;;;;;;63.88;39.97;;;;;;;9.55;52.73;103539.22;5014118;28;20084;-76
2022/01/25 02:59:03;;;;;;;63.92;39.33;;;;;;;9.37;52.96;103537.53;5013321;28;20034;-75
2022/01/25 03:01:29;;;;;;;62.55;38.92;;;;;;;9.25;53.58;103538.75;5013080;28;20041;-76
2022/01/25 03:03:54;;;;;;;67.00;38.90;;;;;;;9.51;52.87;103547.75;5013282;28;20046;-76
2022/01/25 03:06:22;;;;;;;67.28;39.88;;;;;;;9.58;52.68;103541.63;5013153;28;20041;-74
2022/01/25 03:09:08;;;;;;;63.00;38.88;;;;;;;9.47;52.40;103539.13;4995972;28;20042;-76
2022/01/25 03:11:34;;;;;;;56.90;36.00;;;;;;;9.38;52.64;103539.22;5013438;28;20053;-76
2022/01/25 03:14:03;;;;;;;58.22;35.72;;;;;;;8.79;53.75;103539.66;5013189;28;20049;-75
2022/01/25 03:16:36;;;;;;;58.50;37.05;;;;;;;9.21;52.99;103535.53;4995585;28;20045;-76
2022/01/25 03:19:27;;;;;;;60.58;37.58;;;;;;;9.42;52.28;103536.09;5013011;28;20543;-76
2022/01/25 03:21:50;;;;;;;66.97;39.17;;;;;;;9.54;52.63;103525.97;5012916;28;20037;-75
2022/01/25 03:24:15;;;;;;;66.50;38.83;;;;;;;9.62;52.33;103521.53;5012874;28;20401;-76
2022/01/25 03:26:41;;;;;;;69.85;37.85;;;;;;;9.46;52.45;103516.00;5013097;28;20025;-76
2022/01/25 03:29:06;;;;;;;65.45;38.20;;;;;;;9.58;52.21;103516.59;4994937;28;20061;-77
2022/01/25 03:31:32;;;;;;;63.08;36.33;;;;;;;9.54;52.26;103507.16;5012796;28;20049;-75
2022/01/25 03:33:59;;;;;;;60.03;36.85;;;;;;;9.22;53.19;103512.22;5012514;28;20232;-75
2022/01/25 03:36:25;;;;;;;67.07;36.40;;;;;;;9.43;52.46;103513.63;5031322;28;20041;-75
2022/01/25 03:38:50;;;;;;;67.95;39.40;;;;;;;9.45;53.07;103498.19;5032861;28;20112;-75
2022/01/25 03:41:17;;;;;;;66.63;37.10;;;;;;;9.45;53.04;103505.41;5014769;28;20120;-76
2022/01/25 03:43:45;;;;;;;72.10;41.13;;;;;;;9.52;52.60;103501.97;5032306;28;20029;-75
2022/01/25 03:46:17;;;;;;;64.15;38.55;;;;;;;9.57;52.28;103499.66;5030296;28;20115;-75
2022/01/25 03:51:27;;;;;;;68.13;36.00;;;;;;;9.04;53.33;103501.44;5012365;28;20037;-76
2022/01/25 03:53:53;;;;;;;64.93;36.53;;;;;;;9.33;53.60;103494.06;5007278;28;20042;-76
2022/01/25 03:56:20;;;;;;;60.75;36.28;;;;;;;9.15;53.07;103500.38;4975166;28;20039;-75
2022/01/25 03:58:45;;;;;;;63.05;35.65;;;;;;;9.38;52.02;103504.31;4992746;28;20045;-75
2022/01/25 04:01:10;;;;;;;65.07;36.15;;;;;;;9.30;52.35;103497.03;4991214;28;20467;-75
2022/01/25 04:03:42;;;;;;;63.50;35.70;;;;;;;9.40;52.19;103502.34;4992620;28;20042;-75
2022/01/25 04:06:10;;;;;;;62.63;36.65;;;;;;;9.55;52.13;103498.13;4992689;28;20063;-75
2022/01/25 04:08:36;;;;;;;63.85;36.80;;;;;;;9.57;52.43;103501.50;4993110;28;20487;-76
2022/01/25 04:11:02;;;;;;;66.53;38.83;;;;;;;9.59;52.40;103510.25;4992978;28;20141;-75
2022/01/25 04:13:27;;;;;;;68.20;39.88;;;;;;;9.59;52.87;103510.25;4991345;28;20034;-76
2022/01/25 04:15:56;;;;;;;68.53;38.67;;;;;;;9.07;54.07;103514.56;4975088;28;20042;-75
2022/01/25 04:18:35;;;;;;;66.85;37.35;;;;;;;9.33;53.61;103504.81;5031963;28;20405;-75
2022/01/25 04:26:12;;;;;;;64.85;36.08;;;;;;;9.56;53.49;103499.81;5031882;28;20107;-75
2022/01/25 04:28:37;;;;;;;63.30;35.30;;;;;;;9.57;52.65;103510.38;5013910;28;20042;-76
2022/01/25 04:31:03;;;;;;;65.22;36.65;;;;;;;9.55;53.05;103506.19;5017590;28;20116;-76
2022/01/25 04:33:39;;;;;;;68.93;36.35;;;;;;;9.64;52.96;103500.75;5035713;28;20034;-75
2022/01/25 04:36:50;;;;;;;66.93;36.50;;;;;;;9.27;53.19;103496.50;5035338;28;20128;-75
2022/01/25 04:48:54;;;;;;;59.80;35.35;;;;;;;9.12;53.93;103500.72;5035448;28;20096;-76
2022/01/25 04:50:41;;;;;;;72.43;37.15;;;;;;;9.71;52.20;103498.25;4954328;29;20098;-75
2022/01/25 04:53:13;;;;;;;65.18;37.40;;;;;;;9.64;52.36;103495.38;4954577;28;20039;-74
2022/01/25 04:55:47;;;;;;;66.45;36.78;;;;;;;9.71;52.33;103493.75;4954525;28;20036;-76
2022/01/25 04:58:21;;;;;;;73.57;38.78;;;;;;;9.68;52.01;103495.91;4954756;28;20113;-76
2022/01/25 05:00:48;;;;;;;58.22;30.92;;;;;;;9.12;53.20;103503.38;4953219;28;20043;-75
2022/01/25 05:03:19;;;;;;;58.47;31.55;;;;;;;9.29;53.24;103497.19;4954072;29;20047;-76
2022/01/25 05:06:04;;;;;;;56.25;31.52;;;;;;;9.66;52.48;103496.06;4954640;29;20122;-76
2022/01/25 05:08:35;;;;;;;64.43;32.45;;;;;;;9.65;53.23;103494.34;4954534;28;20075;-76
2022/01/25 05:11:09;;;;;;;66.13;34.85;;;;;;;9.69;52.51;103492.19;4954130;29;20108;-74
2022/01/25 05:13:46;;;;;;;64.05;36.58;;;;;;;9.62;52.71;103496.50;4965540;28;20045;-74
2022/01/25 05:19:09;;;;;;;67.93;36.30;;;;;;;9.63;52.69;103499.03;4954069;29;20047;-76
2022/01/25 05:24:19;;;;;;;69.15;35.70;;;;;;;9.54;52.52;103497.28;4954178;29;20129;-76
2022/01/25 05:26:45;;;;;;;71.10;38.58;;;;;;;9.60;52.33;103498.50;4969174;28;20500;-76
2022/01/25 05:29:10;;;;;;;63.70;35.05;;;;;;;9.54;52.25;103493.75;5014763;28;20068;-76
2022/01/25 05:31:37;;;;;;;67.72;37.35;;;;;;;9.57;52.99;103499.66;5014571;28;20568;-75
2022/01/25 05:34:03;;;;;;;67.78;39.25;;;;;;;9.52;53.18;103509.16;5012730;28;20041;-77
2022/01/25 05:36:28;;;;;;;65.22;36.67;;;;;;;9.58;53.19;103500.50;5013216;28;20038;-76
2022/01/25 05:38:57;;;;;;;72.72;38.83;;;;;;;9.58;52.65;103495.97;5015642;28;20095;-76
2022/01/25 05:41:42;;;;;;;67.32;37.42;;;;;;;9.58;53.11;103495.13;4997666;28;20068;-74
2022/01/25 05:44:25;;;;;;;66.63;37.42;;;;;;;9.57;53.46;103499.66;5014152;28;20108;-76
2022/01/25 05:49:23;;;;;;;59.08;32.38;;;;;;;9.35;52.98;103492.06;5014802;28;20030;-75
2022/01/25 05:51:49;;;;;;;64.18;35.53;;;;;;;9.25;53.21;103487.75;5014605;28;20496;-76
2022/01/25 05:54:14;;;;;;;71.43;38.08;;;;;;;9.34;53.42;103478.78;5014083;28;20034;-76
2022/01/25 05:56:39;;;;;;;71.47;39.15;;;;;;;9.38;53.26;103480.16;5014627;28;20033;-77
2022/01/25 05:59:05;;;;;;;70.82;39.05;;;;;;;9.50;52.93;103478.94;5014158;28;20390;-75
2022/01/25 06:01:32;;;;;;;69.18;38.53;;;;;;;9.34;53.51;103487.69;5014179;28;20038;-76
2022/01/25 06:03:57;;;;;;;73.13;38.33;;;;;;;9.35;53.44;103484.03;5014265;28;20053;-76
2022/01/25 06:06:23;;;;;;;70.82;38.00;;;;;;;9.10;53.97;103498.16;5014285;28;20390;-77
2022/01/25 06:08:48;;;;;;;71.53;39.63;;;;;;;9.36;53.74;103498.25;5013687;28;20072;-75
2022/01/25 06:11:13;;;;;;;74.40;41.97;;;;;;;9.44;53.53;103493.84;5014225;28;20034;-76
2022/01/25 06:13:39;;;;;;;71.43;39.88;;;;;;;9.50;53.27;103487.00;5013806;28;20045;-77
2022/01/25 06:16:04;;;;;;;68.95;42.08;;;;;;;9.50;53.03;103490.53;5014022;28;20033;-77
2022/01/25 06:18:30;;;;;;;69.65;38.65;;;;;;;9.37;52.78;103489.22;5013642;28;20033;-77
2022/01/25 06:20:55;;;;;;;71.50;39.47;;;;;;;9.57;53.20;103490.78;5013930;28;20037;-77
2022/01/25 06:23:20;;;;;;;74.70;41.53;;;;;;;9.52;52.76;103503.78;5013645;28;20038;-77
2022/01/25 06:25:46;;;;;;;69.75;38.75;;;;;;;9.45;52.94;103505.41;5013632;28;20038;-76
2022/01/25 06:28:13;;;;;;;70.57;38.85;;;;;;;9.44;52.66;103503.72;5012934;28;20096;-76
2022/01/25 06:30:39;;;;;;;68.68;39.30;;;;;;;9.44;53.06;103504.56;5013112;28;20030;-75
2022/01/25 06:33:07;;;;;;;70.80;38.13;;;;;;;9.42;53.38;103505.72;5012860;28;20040;-77
2022/01/25 06:35:33;;;;;;;69.38;38.88;;;;;;;9.27;52.87;103494.69;5025038;28;20451;-75
2022/01/25 06:37:59;;;;;;;79.57;42.10;;;;;;;9.32;53.31;103492.38;5033588;28;20041;-75
2022/01/25 06:40:43;;;;;;;66.43;40.22;;;;;;;9.49;52.63;103498.75;5033334;28;20048;-76
2022/01/25 06:43:08;;;;;;;76.38;40.35;;;;;;;9.08;53.25;103505.50;5033689;28;20113;-76
2022/01/25 06:45:39;;;;;;;68.38;37.75;;;;;;;9.28;52.92;103495.50;5023432;28;20042;-75
2022/01/25 06:48:04;;;;;;;68.20;39.10;;;;;;;9.35;53.16;103500.13;5033848;28;20045;-76
2022/01/25 06:50:30;;;;;;;71.35;40.10;;;;;;;8.81;54.52;103509.06;5028954;28;20029;-78
2022/01/25 06:52:55;;;;;;;76.82;42.17;;;;;;;9.33;53.77;103504.81;5032244;28;20404;-76
2022/01/25 06:55:21;;;;;;;73.75;39.95;;;;;;;9.47;53.53;103504.25;5033026;28;20041;-77
2022/01/25 06:57:46;;;;;;;72.70;40.63;;;;;;;9.38;53.22;103504.31;5031799;28;20045;-76
2022/01/25 07:00:15;;;;;;;76.30;41.53;;;;;;;9.32;53.43;103497.72;5032232;28;20121;-78
2022/01/25 07:02:42;;;;;;;71.63;41.78;;;;;;;9.41;52.89;103502.22;5032662;28;20115;-76
2022/01/25 07:05:08;;;;;;;74.43;42.42;;;;;;;9.50;52.90;103508.47;5031813;28;20453;-77
2022/01/25 07:07:34;;;;;;;75.53;41.97;;;;;;;9.48;53.10;103511.31;5032446;28;20115;-76
2022/01/25 07:10:07;;;;;;;74.40;40.65;;;;;;;9.53;52.66;103510.88;5026193;28;20099;-77
2022/01/25 07:12:33;;;;;;;78.18;42.67;;;;;;;9.50;52.99;103506.66;5031499;28;20124;-78
2022/01/25 07:14:58;;;;;;;75.13;41.38;;;;;;;9.45;53.55;103506.25;5025702;28;20095;-76
2022/01/25 07:17:24;;;;;;;84.38;43.45;;;;;;;9.56;53.10;103506.03;5024927;28;20034;-75
2022/01/25 07:19:50;;;;;;;76.00;42.33;;;;;;;9.60;52.67;103507.41;5030933;28;20046;-76
2022/01/25 07:22:16;;;;;;;79.95;42.10;;;;;;;9.48;52.70;103513.16;5027469;28;20037;-76
2022/01/25 07:24:41;;;;;;;75.82;41.88;;;;;;;9.43;52.77;103505.56;5033267;28;20497;-76
2022/01/25 07:27:25;;;;;;;76.68;42.33;;;;;;;9.49;52.75;103510.31;5031897;28;20037;-76
2022/01/25 07:29:51;;;;;;;78.45;41.40;;;;;;;9.55;52.79;103509.69;5032326;28;20117;-77
2022/01/25 07:32:16;;;;;;;73.07;41.60;;;;;;;9.28;53.38;103509.75;5032657;28;20243;-77
2022/01/25 07:34:42;;;;;;;75.88;40.88;;;;;;;9.24;53.03;103519.09;5031210;28;20049;-76
2022/01/25 07:37:07;;;;;;;79.55;40.17;;;;;;;9.40;52.90;103511.22;5032298;28;20030;-77
2022/01/25 07:39:32;;;;;;;73.45;41.30;;;;;;;9.51;53.26;103513.69;5029133;28;20095;-76
2022/01/25 07:41:59;;;;;;;74.30;39.95;;;;;;;9.41;53.14;103512.94;5006633;28;20032;-75
2022/01/25 07:44:28;;;;;;;76.93;42.17;;;;;;;9.39;53.32;103512.25;5024317;28;20485;-76
2022/01/25 07:46:57;;;;;;;75.28;39.90;;;;;;;9.44;53.44;103507.25;5034163;28;20029;-77
2022/01/25 07:49:24;;;;;;;77.43;41.30;;;;;;;9.41;54.13;103509.41;5028880;28;20419;-78
2022/01/25 07:51:50;;;;;;;76.22;40.88;;;;;;;9.41;53.46;103509.41;5026562;28;20087;-78
2022/01/25 07:54:15;;;;;;;80.88;41.15;;;;;;;9.49;53.28;103506.81;5032484;28;20061;-78
2022/01/25 07:57:18;;;;;;;76.45;39.70;;;;;;;9.26;54.05;103514.44;5036200;28;20035;-77
2022/01/25 07:59:43;;;;;;;75.15;39.90;;;;;;;9.33;53.59;103507.50;5026032;28;20182;-77
2022/01/25 08:02:14;;;;;;;75.97;40.65;;;;;;;9.46;53.48;103502.56;5026950;28;20765;-77
2022/01/25 08:04:40;;;;;;;;;;;;;;;9.12;53.71;103509.56;5034044;28;20374;-77
2022/01/25 08:07:06;;;;;;;74.20;36.63;;;;;;;9.28;53.63;103500.84;5037254;28;19921;-77
2022/01/25 08:09:31;;;;;;;77.05;38.95;;;;;;;9.25;53.81;103507.41;5032620;28;20043;-77
2022/01/25 08:11:57;;;;;;;72.68;39.15;;;;;;;9.36;53.30;103499.13;5037673;28;20485;-74
2022/01/25 08:14:22;;;;;;;77.63;40.00;;;;;;;9.52;52.78;103501.97;5038319;28;20026;-77
2022/01/25 08:16:49;;;;;;;71.57;39.63;;;;;;;9.25;53.83;103504.72;5045284;28;20040;-77
2022/01/25 08:19:16;;;;;;;77.78;41.47;;;;;;;9.41;53.10;103499.53;5036027;28;20041;-77
2022/01/25 08:21:43;;;;;;;80.47;40.25;;;;;;;9.24;53.82;103500.31;5025334;28;20049;-77
2022/01/25 08:24:13;;;;;;;74.57;40.40;;;;;;;9.38;53.15;103498.97;5030812;28;20385;-76
2022/01/25 08:26:40;;;;;;;79.55;39.22;;;;;;;9.35;53.30;103501.97;5039289;28;20029;-76
2022/01/25 08:29:06;;;;;;;76.60;39.90;;;;;;;9.30;53.81;103504.25;5037126;28;20096;-76
2022/01/25 08:31:32;;;;;;;79.70;41.70;;;;;;;9.30;53.54;103510.44;5033159;28;20037;-76
2022/01/25 08:33:58;;;;;;;79.20;41.67;;;;;;;9.19;53.73;103502.63;5042461;28;20035;-75
2022/01/25 08:36:23;;;;;;;81.93;41.38;;;;;;;9.32;53.59;103500.41;5033758;28;20045;-76
2022/01/25 08:38:49;;;;;;;75.47;40.80;;;;;;;9.25;53.78;103499.34;5042534;28;20079;-76
2022/01/25 08:41:15;;;;;;;73.28;39.53;;;;;;;9.34;53.70;103505.63;5037699;28;20126;-77
2022/01/25 08:43:41;;;;;;;77.15;41.55;;;;;;;9.54;53.18;103509.84;5044166;28;20033;-78
2022/01/25 08:46:06;;;;;;;75.40;40.13;;;;;;;9.28;53.74;103511.59;5035228;28;20129;-74
2022/01/25 08:48:32;;;;;;;84.93;42.42;;;;;;;9.20;53.75;103520.41;5043994;28;20036;-76
2022/01/25 08:50:58;;;;;;;74.10;39.58;;;;;;;9.34;53.41;103516.34;5037909;28;20021;-77
2022/01/25 08:53:24;;;;;;;73.82;40.03;;;;;;;9.29;53.63;103522.19;5039901;28;20037;-76
2022/01/25 08:56:14;;;;;;;71.75;38.88;;;;;;;9.29;53.96;103516.84;5033264;28;20461;-78
2022/01/25 08:58:40;;;;;;;65.68;37.80;;;;;;;9.41;53.48;103523.66;5029455;28;20046;-76
2022/01/25 09:01:06;;;;;;;75.57;38.20;;;;;;;9.55;53.13;103523.13;5021836;28;20191;-75
2022/01/25 09:03:32;;;;;;;73.72;40.10;;;;;;;9.60;53.04;103523.53;5033189;28;20022;-77
2022/01/25 09:05:57;;;;;;;75.68;40.80;;;;;;;9.53;53.47;103521.59;5022398;28;20614;-77
2022/01/25 09:08:25;;;;;;;76.80;39.28;;;;;;;9.46;53.53;103528.56;5039613;28;20021;-77
2022/01/25 09:10:56;;;;;;;82.53;40.72;;;;;;;9.57;53.15;103531.03;5029561;28;20037;-75
2022/01/25 09:13:22;;;;;;;;;;;;;;;9.60;53.70;103531.56;5032180;28;20077;-75
2022/01/25 09:15:47;;;;;;;77.03;39.30;;;;;;;9.58;53.71;103527.34;5028433;28;19933;-76
2022/01/25 09:18:13;;;;;;;73.43;36.22;;;;;;;9.37;53.92;103524.97;5031884;28;20104;-78
2022/01/25 09:20:38;;;;;;;74.97;38.20;;;;;;;9.29;54.15;103529.41;5035909;28;20148;-76
2022/01/25 09:23:04;;;;;;;77.30;39.25;;;;;;;9.41;53.93;103525.50;5036406;28;20048;-79
2022/01/25 09:25:30;;;;;;;80.05;39.20;;;;;;;9.43;53.52;103528.88;5010554;28;20033;-78
2022/01/25 09:27:56;;;;;;;74.95;38.90;;;;;;;9.57;53.60;103531.88;5034644;28;20045;-77
2022/01/25 09:30:21;;;;;;;78.88;38.85;;;;;;;9.61;53.80;103522.50;5032368;28;20080;-77
2022/01/25 09:32:47;;;;;;;74.15;40.35;;;;;;;9.77;53.43;103525.34;5032156;28;20505;-76
2022/01/25 09:35:12;;;;;;;81.18;39.97;;;;;;;9.63;53.30;103530.44;5028629;28;20061;-77
2022/01/25 09:37:39;;;;;;;68.13;38.80;;;;;;;9.67;54.00;103524.56;5024426;28;20079;-78
2022/01/25 09:40:05;;;;;;;72.20;37.25;;;;;;;9.97;52.63;103527.84;5027003;28;20078;-77
2022/01/25 09:42:52;;;;;;;71.30;39.15;;;;;;;9.67;52.98;103531.78;5030437;28;20116;-78
2022/01/25 09:45:18;;;;;;;73.72;37.45;;;;;;;9.75;53.72;103540.78;5034478;28;20439;-77
2022/01/25 09:47:45;;;;;;;74.13;36.53;;;;;;;9.78;53.14;103534.25;5039483;28;20515;-77
2022/01/25 09:50:10;;;;;;;67.30;37.42;;;;;;;9.88;52.89;103535.03;5034673;28;20128;-77
2022/01/25 09:52:40;;;;;;;76.10;37.22;;;;;;;9.99;52.72;103541.97;5032052;28;20120;-78
2022/01/25 09:55:10;;;;;;;72.63;36.53;;;;;;;10.04;52.93;103543.22;5029058;28;20037;-77
2022/01/25 09:57:54;;;;;;;74.03;37.17;;;;;;;10.01;53.33;103542.66;5031882;28;20370;-77
2022/01/25 10:00:24;;;;;;;83.38;37.83;;;;;;;9.92;53.23;103548.97;5029199;28;20053;-78
2022/01/25 10:03:20;;;;;;;74.28;38.80;;;;;;;9.69;53.36;103551.28;5014179;28;20068;-78
2022/01/25 10:05:43;;;;;;;68.03;34.58;;;;;;;9.98;52.87;103554.59;5027864;28;20234;-78
2022/01/25 10:08:10;;;;;;;71.05;37.65;;;;;;;10.28;51.94;103558.72;5031631;28;21277;-76
2022/01/25 10:10:43;;;;;;;75.25;37.20;;;;;;;10.29;51.73;103555.88;5037011;28;20064;-79
2022/01/25 10:13:50;;;;;;;74.25;36.83;;;;;;;10.09;52.86;103565.06;5034042;28;20347;-78
2022/01/25 10:16:19;;;;;;;67.20;34.45;;;;;;;10.15;52.37;103559.13;5022688;28;20477;-76
2022/01/25 10:18:50;;;;;;;67.90;33.28;;;;;;;10.06;52.80;103565.41;5032627;28;20100;-77
2022/01/25 10:21:39;;;;;;;68.20;34.97;;;;;;;9.96;52.56;103564.63;5036298;28;20125;-77
2022/01/25 10:24:24;;;;;;;71.50;34.67;;;;;;;9.81;52.81;103571.53;5018735;28;20037;-76
2022/01/25 10:27:09;;;;;;;72.47;36.03;;;;;;;9.94;52.61;103574.69;5023947;28;20048;-77
2022/01/25 10:29:36;;;;;;;68.57;35.13;;;;;;;10.11;52.61;103570.31;5030154;28;20037;-77
2022/01/25 10:32:05;;;;;;;62.70;34.92;;;;;;;10.17;52.95;103577.75;5030981;28;20041;-79
2022/01/25 10:34:41;;;;;;;71.70;35.78;;;;;;;10.14;53.01;103576.22;5026392;28;20125;-80
2022/01/25 10:37:12;;;;;;;75.55;35.58;;;;;;;10.03;52.56;103586.34;5037659;28;20094;-78
2022/01/25 10:39:45;;;;;;;;;;;;;;;10.13;52.59;103585.28;5040703;28;20057;-77
2022/01/25 10:45:32;;;;;;;67.10;32.10;;;;;;;10.07;52.08;103590.41;5033844;28;20132;-77
2022/01/25 10:48:03;;;;;;;68.47;33.65;;;;;;;9.95;53.29;103588.94;5027524;28;20175;-75
2022/01/25 10:50:36;;;;;;;73.32;35.47;;;;;;;9.99;53.33;103585.81;5037688;28;20075;-76
2022/01/25 10:53:27;;;;;;;66.40;35.50;;;;;;;10.06;53.16;103588.72;5031591;28;20053;-76
2022/01/25 10:55:53;;;;;;;67.80;35.80;;;;;;;10.12;53.41;103586.28;5024029;28;20084;-78
2022/01/25 10:58:19;;;;;;;77.85;37.33;;;;;;;10.07;52.96;103582.34;5037185;28;20578;-77
2022/01/25 11:00:47;;;;;;;66.45;34.97;;;;;;;10.23;53.04;103579.81;5036746;28;20119;-78
2022/01/25 11:03:25;;;;;;;72.65;35.40;;;;;;;10.36;51.95;103580.25;5029201;28;20037;-78
2022/01/25 11:05:50;;;;;;;67.20;32.63;;;;;;;10.27;51.87;103576.69;5032848;28;20070;-78
2022/01/25 11:08:21;;;;;;;67.97;35.97;;;;;;;10.33;51.43;103576.06;5032585;28;20109;-77
2022/01/25 11:11:00;;;;;;;66.30;35.42;;;;;;;10.30;52.03;103570.16;5028444;28;20038;-76
2022/01/25 11:15:55;;;;;;;70.60;34.67;;;;;;;10.07;52.58;103576.97;5032674;28;20029;-76
2022/01/25 11:18:21;;;;;;;67.40;35.28;;;;;;;10.23;52.31;103571.75;5033667;28;20037;-81
2022/01/25 11:20:48;;;;;;;68.10;35.85;;;;;;;10.22;52.22;103565.53;5030043;28;20064;-78
2022/01/25 11:23:13;;;;;;;69.80;37.22;;;;;;;10.14;52.41;103560.09;5033804;28;20874;-80
2022/01/25 11:25:40;;;;;;;71.28;34.45;;;;;;;10.18;52.52;103558.78;5022936;28;20112;-78
2022/01/25 11:28:06;;;;;;;69.97;36.42;;;;;;;10.12;52.38;103559.41;5036564;28;20067;-77
2022/01/25 11:30:32;;;;;;;67.90;35.67;;;;;;;10.19;52.51;103552.44;5027701;28;20493;-80
2022/01/25 11:32:59;;;;;;;69.53;34.78;;;;;;;10.14;52.78;103559.28;5032912;28;20140;-78
2022/01/25 11:35:26;;;;;;;68.57;36.58;;;;;;;10.10;52.56;103549.84;5044171;28;20033;-77
2022/01/25 11:37:53;;;;;;;72.32;36.60;;;;;;;9.88;53.13;103548.44;5041315;28;20068;-69
2022/01/25 11:40:27;;;;;;;81.88;37.05;;;;;;;10.19;52.74;103546.19;5029678;28;20493;-69
2022/01/25 11:42:56;;;;;;;70.10;36.38;;;;;;;10.12;52.34;103537.09;5032839;28;20041;-69
2022/01/25 11:45:23;;;;;;;70.78;36.10;;;;;;;10.19;52.64;103532.78;5027517;28;20091;-69
2022/01/25 11:47:51;;;;;;;77.30;40.13;;;;;;;9.86;53.33;103536.16;5026619;28;20167;-68
2022/01/25 11:50:17;;;;;;;67.18;36.72;;;;;;;10.10;52.19;103541.78;5034217;28;20080;-71
2022/01/25 11:52:47;;;;;;;77.70;39.40;;;;;;;9.61;53.41;103543.97;5031988;28;20484;-69
2022/01/25 11:55:24;;;;;;;73.68;39.42;;;;;;;9.56;53.72;103532.03;5023097;28;20070;-70
2022/01/25 11:57:58;;;;;;;76.85;38.00;;;;;;;9.67;53.61;103537.16;5023119;28;20065;-69
2022/01/25 12:00:38;;;;;;;67.13;35.25;;;;;;;9.66;53.96;103527.44;5025003;28;20046;-69
2022/01/25 12:03:21;;;;;;;73.13;39.03;;;;;;;9.71;53.38;103520.59;5026750;28;20836;-70
2022/01/25 12:06:03;;;;;;;73.35;37.75;;;;;;;9.87;53.13;103530.63;5026090;28;20103;-70
2022/01/25 12:09:04;;;;;;;81.38;39.05;;;;;;;9.98;53.50;103525.03;5024515;28;20056;-70
2022/01/25 12:11:35;;;;;;;77.13;38.78;;;;;;;9.77;52.98;103521.81;5025630;28;20041;-70
2022/01/25 12:14:33;;;;;;;75.93;37.45;;;;;;;9.98;52.55;103516.97;5009100;28;20098;-69
2022/01/25 12:17:11;;;;;;;71.35;36.17;;;;;;;10.01;52.51;103513.97;5029763;28;20530;-70
2022/01/25 12:19:41;;;;;;;74.55;37.22;;;;;;;9.51;53.73;103526.28;5024258;28;20049;-69
2022/01/25 12:22:12;;;;;;;84.82;40.90;;;;;;;9.81;52.97;103517.00;5022319;28;20125;-69
2022/01/25 12:24:46;;;;;;;72.45;37.08;;;;;;;10.09;52.44;103513.19;5025238;28;20053;-71
2022/01/25 12:27:28;;;;;;;82.28;38.83;;;;;;;10.24;52.56;103511.66;5020743;28;20491;-70
2022/01/25 12:30:12;;;;;;;78.03;38.33;;;;;;;9.98;52.64;103511.59;5033269;28;20033;-71
2022/01/25 12:33:18;;;;;;;74.07;36.40;;;;;;;10.26;52.36;103512.34;5022637;28;20041;-69
2022/01/25 12:36:02;;;;;;;80.53;37.20;;;;;;;10.34;52.49;103510.53;5026287;28;20788;-69
2022/01/25 12:38:47;;;;;;;71.88;37.05;;;;;;;10.46;51.55;103516.47;5020705;28;20041;-71
2022/01/25 12:41:15;;;;;;;80.20;39.55;;;;;;;10.47;51.92;103519.03;5023639;28;20311;-70
2022/01/25 12:43:44;;;;;;;68.65;36.75;;;;;;;10.36;52.19;103511.22;5027348;28;20044;-71
2022/01/25 12:46:14;;;;;;;71.70;38.50;;;;;;;10.27;52.53;103506.81;5030084;28;20045;-70
2022/01/25 12:48:48;;;;;;;72.93;35.03;;;;;;;10.52;51.60;103505.94;5024565;28;20100;-72
2022/01/25 12:51:34;;;;;;;70.82;37.78;;;;;;;10.54;51.67;103497.72;5026357;28;20027;-69
2022/01/25 12:54:03;;;;;;;72.45;36.80;;;;;;;10.58;51.72;103499.94;5030427;28;20086;-69
2022/01/25 12:56:40;;;;;;;82.55;38.13;;;;;;;10.51;51.85;103482.72;5029807;28;20029;-70
2022/01/25 12:59:12;;;;;;;71.88;35.63;;;;;;;10.62;51.50;103484.31;5031145;28;20136;-70
2022/01/25 13:01:40;;;;;;;76.38;40.13;;;;;;;10.31;52.13;103485.81;5028174;28;20048;-69
2022/01/25 13:04:07;;;;;;;73.15;38.38;;;;;;;10.34;51.75;103480.97;5031982;28;20037;-69